Time;durP1;ratioP1;P1;durP2;ratioP2;P2;SDS_P1;SDS_P2;PMS_P1;PMS_P2;Temp;Humidity;BMP_temperature;BMP_pressure;BME280_temperature;BME280_humidity;BME280_pressure;Samples;Min_cycle;Max_cycle;Signal;HPM_P1;HPM_P2
2022/01/02 00:00:08;;;;;;;13.95;5.20;;;;;;;10.23;100.00;101534.50;5066611;28;20051;-75
2022/01/02 00:02:35;;;;;;;14.05;5.30;;;;;;;10.25;100.00;101515.91;5067844;28;20111;-75
2022/01/02 00:05:11;;;;;;;9.63;5.22;;;;;;;10.15;100.00;101501.81;5056955;28;20552;-75
2022/01/02 00:07:50;;;;;;;9.60;5.40;;;;;;;10.23;100.00;101510.75;5047545;28;20029;-75
2022/01/02 00:10:20;;;;;;;10.20;5.13;;;;;;;10.14;100.00;101495.72;5066824;28;20056;-75
2022/01/02 00:12:50;;;;;;;12.90;4.80;;;;;;;10.21;100.00;101507.44;5048423;28;20496;-75
2022/01/02 00:15:18;;;;;;;11.10;4.97;;;;;;;10.08;100.00;101476.00;5065742;28;20040;-75
2022/01/02 00:17:45;;;;;;;12.77;6.30;;;;;;;10.10;100.00;101496.94;5067242;28;20295;-75
2022/01/02 00:20:13;;;;;;;7.38;4.78;;;;;;;10.17;100.00;101507.81;5048605;28;20032;-75
2022/01/02 00:22:40;;;;;;;16.98;5.85;;;;;;;10.21;100.00;101512.72;5029811;28;20532;-75
2022/01/02 00:25:24;;;;;;;6.85;4.40;;;;;;;10.14;100.00;101501.00;5063695;28;20074;-75
2022/01/02 00:27:49;;;;;;;9.45;5.03;;;;;;;10.28;100.00;101515.66;5036834;28;20033;-75
2022/01/02 00:30:16;;;;;;;9.73;4.38;;;;;;;10.17;100.00;101490.19;5066923;28;20035;-75
2022/01/02 00:32:43;;;;;;;9.50;4.72;;;;;;;10.33;100.00;101500.28;5071540;28;20108;-75
2022/01/02 00:35:08;;;;;;;9.38;5.88;;;;;;;10.26;100.00;101489.41;5068829;28;20040;-75
2022/01/02 00:37:34;;;;;;;10.35;5.93;;;;;;;10.35;100.00;101508.91;5030029;28;20033;-75
2022/01/02 00:39:59;;;;;;;10.23;5.88;;;;;;;10.37;100.00;101511.44;5062707;28;20041;-75
2022/01/02 00:42:36;;;;;;;10.65;4.85;;;;;;;10.26;100.00;101489.41;5049958;28;20024;-75
2022/01/02 00:45:10;;;;;;;10.52;5.00;;;;;;;10.44;100.00;101502.00;5063111;28;20466;-75
2022/01/02 00:47:35;;;;;;;13.15;5.20;;;;;;;10.44;100.00;101487.00;5063435;28;20029;-75
2022/01/02 00:50:12;;;;;;;11.32;6.40;;;;;;;10.27;100.00;101454.13;5065373;28;20394;-75
2022/01/02 00:52:44;;;;;;;20.17;6.30;;;;;;;10.41;100.00;101475.88;5048253;28;20024;-75
2022/01/02 00:55:13;;;;;;;14.10;5.95;;;;;;;10.35;100.00;101468.50;5059873;28;20032;-75
2022/01/02 00:57:41;;;;;;;10.40;5.40;;;;;;;10.33;100.00;101470.44;5043734;28;20032;-75
2022/01/02 01:00:07;;;;;;;11.00;5.90;;;;;;;10.37;100.00;101480.59;5067259;28;20035;-75
2022/01/02 01:02:43;;;;;;;11.93;5.50;;;;;;;10.37;100.00;101477.94;5064104;28;20017;-75
2022/01/02 01:05:09;;;;;;;11.60;4.93;;;;;;;10.32;100.00;101460.84;5062758;28;20024;-75
2022/01/02 01:07:34;;;;;;;19.45;5.90;;;;;;;10.38;100.00;101462.94;5064292;28;20055;-75
2022/01/02 01:10:06;;;;;;;14.07;6.03;;;;;;;10.39;100.00;101467.28;5046249;28;20020;-75
2022/01/02 01:12:32;;;;;;;6.07;3.55;;;;;;;10.40;100.00;101468.94;5063391;28;20036;-75
2022/01/02 01:14:57;;;;;;;13.80;5.78;;;;;;;10.31;100.00;101441.53;5065982;28;20059;-75
2022/01/02 01:17:24;;;;;;;14.43;4.88;;;;;;;10.40;100.00;101453.09;5064378;28;20165;-75
2022/01/02 01:19:52;;;;;;;13.32;5.13;;;;;;;10.39;100.00;101447.00;5044486;28;20500;-75
2022/01/02 01:22:17;;;;;;;8.38;5.10;;;;;;;10.48;100.00;101466.47;5043901;28;20301;-75
2022/01/02 01:24:43;;;;;;;11.50;5.10;;;;;;;10.37;100.00;101458.66;5043021;28;20131;-75
2022/01/02 01:27:09;;;;;;;13.98;6.05;;;;;;;10.49;100.00;101473.41;5042986;28;20482;-75
2022/01/02 01:29:36;;;;;;;14.55;5.28;;;;;;;10.50;100.00;101481.19;5048151;28;20241;-75
2022/01/02 01:32:06;;;;;;;15.48;5.38;;;;;;;10.53;100.00;101481.91;5049571;28;20040;-75
2022/01/02 01:34:32;;;;;;;11.50;4.90;;;;;;;10.51;100.00;101466.19;5066217;28;20039;-75
2022/01/02 01:36:58;;;;;;;9.75;5.40;;;;;;;10.46;100.00;101463.94;5064465;28;20023;-75
2022/01/02 01:39:23;;;;;;;13.65;5.45;;;;;;;10.52;100.00;101473.16;5061195;28;20031;-75
2022/01/02 01:41:51;;;;;;;10.70;5.57;;;;;;;10.47;100.00;101475.34;5067827;28;20052;-75
2022/01/02 01:46:42;;;;;;;12.48;5.50;;;;;;;10.35;100.00;101447.41;5061211;28;20039;-75
2022/01/02 01:49:31;;;;;;;14.52;5.50;;;;;;;10.40;100.00;101453.09;5028121;28;20035;-75
2022/01/02 01:51:57;;;;;;;11.77;5.00;;;;;;;10.16;100.00;101409.38;5063238;28;20493;-75
2022/01/02 01:54:23;;;;;;;11.10;5.10;;;;;;;10.34;100.00;101435.16;5062598;28;20039;-75
2022/01/02 01:56:51;;;;;;;12.82;5.85;;;;;;;10.27;100.00;101411.91;5049772;28;20031;-75
2022/01/02 01:59:19;;;;;;;11.32;6.05;;;;;;;10.28;100.00;101412.78;5029837;28;20032;-75
2022/01/02 02:01:45;;;;;;;12.10;5.85;;;;;;;10.39;100.00;101435.59;5047096;28;20059;-75
2022/01/02 02:04:10;;;;;;;16.75;5.75;;;;;;;10.29;100.00;101425.84;5064324;28;20036;-75
2022/01/02 02:06:37;;;;;;;11.95;6.07;;;;;;;10.35;100.00;101434.19;5048071;28;20036;-75
2022/01/02 02:09:04;;;;;;;14.32;5.75;;;;;;;10.20;100.00;101413.41;5061093;28;20025;-75
2022/01/02 02:11:30;;;;;;;16.08;6.75;;;;;;;10.32;100.00;101429.19;5061087;28;20054;-75
2022/01/02 02:13:56;;;;;;;16.77;7.30;;;;;;;10.27;100.00;101427.75;5063903;28;20029;-75
2022/01/02 02:16:23;;;;;;;12.15;5.57;;;;;;;10.33;100.00;101430.88;5044240;28;20036;-75
2022/01/02 02:18:49;;;;;;;12.52;5.40;;;;;;;10.34;100.00;101419.31;5046105;28;20480;-75
2022/01/02 02:21:14;;;;;;;13.25;6.93;;;;;;;10.06;100.00;101367.16;5060457;28;20036;-75
2022/01/02 02:23:42;;;;;;;14.65;5.80;;;;;;;10.33;100.00;101404.47;5046004;28;20024;-75
2022/01/02 02:26:08;;;;;;;14.45;6.07;;;;;;;10.32;100.00;101392.25;5064163;28;20127;-75
2022/01/02 02:28:33;;;;;;;14.70;7.13;;;;;;;10.17;100.00;101368.88;5045689;28;20095;-75
2022/01/02 02:30:59;;;;;;;13.65;6.53;;;;;;;10.28;100.00;101387.22;5032218;28;20029;-75
2022/01/02 02:33:25;;;;;;;19.50;7.82;;;;;;;10.23;100.00;101384.13;5063439;28;20025;-75
2022/01/02 02:35:50;;;;;;;16.27;7.63;;;;;;;10.25;100.00;101386.63;5045141;28;20028;-75
2022/01/02 02:38:18;;;;;;;15.23;7.65;;;;;;;10.20;100.00;101380.94;5068670;28;20329;-75
2022/01/02 02:40:44;;;;;;;18.52;7.45;;;;;;;10.18;100.00;101383.72;5049033;28;20443;-75
2022/01/02 02:52:08;;;;;;;12.40;7.13;;;;;;;10.15;100.00;101370.78;5066889;28;20122;-75
2022/01/02 02:54:35;;;;;;;15.25;7.82;;;;;;;10.14;100.00;101366.47;5050785;28;20127;-76
2022/01/02 02:57:01;;;;;;;17.23;7.82;;;;;;;10.15;100.00;101352.34;5050296;28;20393;-76
2022/01/02 02:59:29;;;;;;;13.98;8.63;;;;;;;10.11;100.00;101350.94;5062229;28;20040;-75
2022/01/02 03:01:55;;;;;;;16.88;7.57;;;;;;;10.09;100.00;101350.22;5044278;28;20036;-75
2022/01/02 03:04:22;;;;;;;16.88;9.30;;;;;;;10.05;100.00;101333.00;5066147;28;20029;-75
2022/01/02 03:06:48;;;;;;;21.77;9.07;;;;;;;9.99;100.00;101325.63;5052391;28;20032;-75
2022/01/02 03:09:15;;;;;;;16.45;8.77;;;;;;;10.01;100.00;101336.88;5067709;28;20028;-76
2022/01/02 03:11:42;;;;;;;14.43;8.45;;;;;;;9.91;100.00;101325.44;5069875;28;20028;-76
2022/01/02 03:14:11;;;;;;;20.58;9.05;;;;;;;9.94;100.00;101330.47;5033452;28;20388;-76
2022/01/02 03:16:37;;;;;;;21.85;10.43;;;;;;;9.68;100.00;101288.75;5046116;28;20021;-76
2022/01/02 03:19:03;;;;;;;20.08;9.48;;;;;;;9.89;100.00;101309.78;5052203;28;20347;-76
2022/01/02 03:21:28;;;;;;;16.48;8.82;;;;;;;9.71;100.00;101275.28;5052935;28;20361;-76
2022/01/02 03:23:54;;;;;;;15.25;9.07;;;;;;;9.64;100.00;101258.38;5030499;28;20059;-76
2022/01/02 03:26:19;;;;;;;20.20;10.27;;;;;;;9.75;100.00;101289.88;5046572;28;20395;-76
2022/01/02 03:28:46;;;;;;;21.73;9.38;;;;;;;9.86;100.00;101296.84;5065668;28;20020;-76
2022/01/02 03:31:11;;;;;;;15.52;8.48;;;;;;;9.86;100.00;101292.44;5051221;28;20029;-76
2022/01/02 03:33:37;;;;;;;26.00;9.70;;;;;;;9.66;100.00;101261.69;5053744;28;20366;-76
2022/01/02 03:36:04;;;;;;;24.33;9.40;;;;;;;9.87;100.00;101293.25;5032615;28;20080;-77
2022/01/02 03:38:30;;;;;;;18.10;9.68;;;;;;;9.85;100.00;101293.38;5061424;28;20024;-76
2022/01/02 03:40:56;;;;;;;19.25;8.50;;;;;;;9.82;100.00;101279.63;5054016;28;20201;-77
2022/01/02 03:43:21;;;;;;;16.92;9.18;;;;;;;9.82;100.00;101280.50;5031937;28;20031;-76
2022/01/02 03:45:47;;;;;;;17.95;9.90;;;;;;;9.82;100.00;101272.59;5066228;28;20364;-76
2022/01/02 03:48:13;;;;;;;17.90;8.88;;;;;;;9.69;100.00;101248.28;5069749;28;20476;-76
2022/01/02 03:50:38;;;;;;;20.35;9.70;;;;;;;9.74;100.00;101253.13;5046591;28;20052;-76
2022/01/02 03:53:05;;;;;;;22.77;10.00;;;;;;;9.70;100.00;101249.94;5044163;28;20933;-76
2022/01/02 03:55:30;;;;;;;21.95;9.50;;;;;;;9.77;100.00;101250.22;5052795;28;20021;-76
2022/01/02 03:57:56;;;;;;;19.95;10.38;;;;;;;9.64;100.00;101214.38;5048283;28;20090;-76
2022/01/02 04:00:21;;;;;;;19.08;8.43;;;;;;;9.77;100.00;101240.50;5009052;28;20052;-76
2022/01/02 04:02:46;;;;;;;18.27;10.27;;;;;;;9.77;100.00;101232.59;5028530;28;20033;-76
2022/01/02 04:05:13;;;;;;;17.67;11.18;;;;;;;9.75;100.00;101216.06;5027677;28;20466;-76
2022/01/02 04:07:40;;;;;;;18.02;9.10;;;;;;;9.68;100.00;101207.06;5026155;28;20504;-76
2022/01/02 04:10:08;;;;;;;18.30;9.80;;;;;;;9.68;100.00;101199.16;5036368;28;20039;-76
2022/01/02 04:12:34;;;;;;;21.88;11.80;;;;;;;9.77;100.00;101222.06;5046706;28;20112;-76
2022/01/02 04:15:00;;;;;;;19.63;10.60;;;;;;;9.81;100.00;101220.81;5048810;28;20111;-76
2022/01/02 04:17:26;;;;;;;23.02;10.68;;;;;;;9.75;100.00;101216.06;5045910;28;20029;-76
2022/01/02 04:19:51;;;;;;;22.10;11.93;;;;;;;9.72;100.00;101205.81;5044184;28;20024;-76
2022/01/02 04:22:17;;;;;;;22.23;11.05;;;;;;;9.77;100.00;101198.31;5032311;28;20032;-76
2022/01/02 04:24:43;;;;;;;25.30;11.07;;;;;;;9.79;100.00;101206.94;5045739;28;20398;-76
2022/01/02 04:27:08;;;;;;;26.17;11.88;;;;;;;9.82;100.00;101206.69;5044350;28;20090;-76
2022/01/02 04:29:34;;;;;;;22.52;11.77;;;;;;;9.69;100.00;101185.03;5048827;28;20520;-76
2022/01/02 04:31:59;;;;;;;24.73;11.18;;;;;;;9.84;100.00;101194.19;5044756;28;20540;-76
2022/01/02 04:34:25;;;;;;;23.90;11.90;;;;;;;9.72;100.00;101176.00;5045000;28;20032;-76
2022/01/02 04:36:50;;;;;;;25.52;12.10;;;;;;;9.72;100.00;101168.91;5046977;28;20032;-76
2022/01/02 04:39:16;;;;;;;20.38;12.25;;;;;;;9.89;100.00;101194.63;5043429;28;20108;-77
2022/01/02 04:41:42;;;;;;;25.00;12.18;;;;;;;9.89;100.00;101180.59;5044675;28;20270;-77
2022/01/02 04:44:07;;;;;;;27.60;10.48;;;;;;;9.93;100.00;101173.22;5028714;28;20082;-76
2022/01/02 04:46:32;;;;;;;20.00;10.70;;;;;;;9.93;100.00;101181.13;5044250;28;20078;-77
2022/01/02 04:48:58;;;;;;;22.98;12.90;;;;;;;9.81;100.00;101152.28;5043063;28;20021;-77
2022/01/02 04:51:23;;;;;;;21.15;10.70;;;;;;;9.94;100.00;101174.91;5044167;28;20531;-77
2022/01/02 04:53:49;;;;;;;20.65;11.40;;;;;;;9.95;100.00;101158.09;5042424;28;20021;-76
2022/01/02 04:56:15;;;;;;;25.27;10.10;;;;;;;9.98;100.00;101157.84;5045783;28;20536;-76
2022/01/02 04:58:42;;;;;;;15.85;8.40;;;;;;;9.92;100.00;101143.41;5050115;28;20090;-76
2022/01/02 05:01:11;;;;;;;27.42;9.50;;;;;;;9.92;100.00;101138.13;5041425;28;20202;-76
2022/01/02 05:03:41;;;;;;;19.67;9.95;;;;;;;10.03;100.00;101145.91;5037210;28;20115;-76
2022/01/02 05:06:07;;;;;;;16.92;9.32;;;;;;;10.02;100.00;101146.88;5044181;28;20358;-76
2022/01/02 05:08:32;;;;;;;17.35;9.13;;;;;;;10.07;100.00;101154.38;5043478;28;20484;-76
2022/01/02 05:10:58;;;;;;;26.05;10.15;;;;;;;10.08;100.00;101145.47;5049404;28;20043;-76
2022/01/02 05:13:23;;;;;;;20.55;9.45;;;;;;;10.07;100.00;101141.19;5042744;28;20110;-76
2022/01/02 05:15:48;;;;;;;19.73;10.48;;;;;;;10.07;100.00;101149.94;5041838;28;20098;-76
2022/01/02 05:18:14;;;;;;;20.75;9.20;;;;;;;10.11;100.00;101139.94;5049604;28;20041;-76
2022/01/02 05:20:39;;;;;;;15.20;9.10;;;;;;;10.12;100.00;101132.84;5026887;28;20025;-76
2022/01/02 05:23:05;;;;;;;25.02;11.48;;;;;;;10.13;100.00;101134.53;5032902;28;20044;-76
2022/01/02 05:25:30;;;;;;;19.73;9.98;;;;;;;10.13;100.00;101130.09;5046783;28;20032;-76
2022/01/02 05:27:56;;;;;;;18.15;10.63;;;;;;;10.12;100.00;101128.41;5042318;28;20053;-76
2022/01/02 05:30:21;;;;;;;21.40;9.85;;;;;;;10.02;100.00;101106.50;5043994;28;20035;-76
2022/01/02 05:32:47;;;;;;;16.13;9.40;;;;;;;9.99;100.00;101094.41;5043244;28;20344;-76
2022/01/02 05:35:12;;;;;;;17.80;9.07;;;;;;;10.16;100.00;101119.25;5041532;28;20127;-76
2022/01/02 05:37:37;;;;;;;19.70;8.75;;;;;;;10.11;100.00;101094.28;5056150;28;20037;-76
2022/01/02 05:40:03;;;;;;;21.20;10.60;;;;;;;10.08;100.00;101092.72;5042839;28;20045;-77
2022/01/02 05:42:28;;;;;;;21.65;11.32;;;;;;;10.05;100.00;101078.03;5040159;28;20465;-76
2022/01/02 05:44:54;;;;;;;20.13;10.10;;;;;;;10.03;100.00;101072.06;5025992;28;20036;-76
2022/01/02 05:47:19;;;;;;;24.75;10.65;;;;;;;10.12;100.00;101074.84;5028120;28;20025;-76
2022/01/02 05:49:45;;;;;;;21.15;10.50;;;;;;;10.19;100.00;101082.06;5025698;28;20515;-76
2022/01/02 05:52:10;;;;;;;26.27;10.70;;;;;;;10.20;100.00;101072.31;5063061;28;20044;-76
2022/01/02 05:54:35;;;;;;;26.23;10.27;;;;;;;10.18;100.00;101074.28;5049720;28;20392;-76
2022/01/02 05:57:01;;;;;;;21.63;10.95;;;;;;;10.14;100.00;101057.88;5030628;28;20177;-76
2022/01/02 05:59:26;;;;;;;26.25;12.02;;;;;;;10.16;100.00;101053.31;5031150;28;20036;-76
2022/01/02 06:01:51;;;;;;;28.60;12.50;;;;;;;10.15;100.00;101048.16;5031045;28;20024;-76
2022/01/02 06:04:17;;;;;;;20.75;9.40;;;;;;;10.14;100.00;101042.06;5063380;28;20115;-76
2022/01/02 06:06:44;;;;;;;23.80;9.07;;;;;;;10.06;100.00;101028.75;5066117;28;20031;-76
2022/01/02 06:09:09;;;;;;;22.05;9.63;;;;;;;9.97;100.00;101016.44;5063990;28;20051;-76
2022/01/02 06:11:35;;;;;;;24.92;10.07;;;;;;;10.06;100.00;101023.47;5047356;28;20029;-76
2022/01/02 06:14:01;;;;;;;19.25;8.95;;;;;;;10.11;100.00;101026.53;5033482;28;20143;-76
2022/01/02 06:16:26;;;;;;;15.80;7.85;;;;;;;10.06;100.00;101013.78;5060268;28;20040;-76
2022/01/02 06:18:53;;;;;;;22.13;8.50;;;;;;;10.01;100.00;101016.00;5064720;28;20024;-76
2022/01/02 06:21:18;;;;;;;18.42;9.18;;;;;;;10.13;100.00;101011.41;5045440;28;20477;-76
2022/01/02 06:23:43;;;;;;;21.33;9.05;;;;;;;10.13;100.00;101008.78;5048882;28;20035;-76
2022/01/02 06:26:09;;;;;;;15.18;7.13;;;;;;;10.00;100.00;100987.97;5044578;28;20081;-76
2022/01/02 06:28:34;;;;;;;23.42;8.98;;;;;;;10.13;100.00;101003.50;5046670;28;20012;-76
2022/01/02 06:31:00;;;;;;;19.42;7.80;;;;;;;10.15;100.00;101004.19;5047719;28;20032;-76
2022/01/02 06:33:25;;;;;;;23.10;9.23;;;;;;;10.18;100.00;100993.34;5059412;28;20294;-76
2022/01/02 06:35:50;;;;;;;15.93;6.47;;;;;;;10.20;100.00;100993.19;5044632;28;20025;-76
2022/01/02 06:38:19;;;;;;;19.30;7.65;;;;;;;10.13;100.00;100971.84;5043584;28;20416;-76
2022/01/02 06:40:44;;;;;;;17.60;7.30;;;;;;;10.25;100.00;100981.22;5047801;28;20020;-76
2022/01/02 06:43:10;;;;;;;25.40;12.10;;;;;;;10.14;100.00;100952.41;5069896;28;20040;-76
2022/01/02 06:45:36;;;;;;;21.15;7.90;;;;;;;10.26;100.00;100967.06;5026992;28;20392;-76
2022/01/02 06:48:04;;;;;;;24.17;9.38;;;;;;;10.17;100.00;100936.31;5026762;28;20024;-76
2022/01/02 06:50:31;;;;;;;10.68;5.85;;;;;;;10.28;100.00;100945.84;5069290;28;20417;-76
2022/01/02 06:52:56;;;;;;;15.63;7.05;;;;;;;10.27;100.00;100937.06;5045118;28;20020;-76
2022/01/02 06:55:22;;;;;;;13.43;6.82;;;;;;;10.19;100.00;100912.41;5046189;28;20028;-76
2022/01/02 06:57:47;;;;;;;17.27;7.68;;;;;;;10.28;100.00;100914.19;5066879;28;20405;-76
2022/01/02 07:00:13;;;;;;;20.08;7.78;;;;;;;10.31;100.00;100915.72;5026119;28;20052;-76
2022/01/02 07:02:38;;;;;;;15.10;6.68;;;;;;;10.31;100.00;100900.72;5055867;28;20045;-76
2022/01/02 07:05:04;;;;;;;20.40;7.28;;;;;;;10.33;100.00;100901.41;5062996;28;20021;-76
2022/01/02 07:07:29;;;;;;;15.50;6.35;;;;;;;10.20;100.00;100877.16;5064427;28;20678;-76
2022/01/02 07:09:55;;;;;;;13.45;6.40;;;;;;;10.34;100.00;100879.31;5067019;28;20308;-76
2022/01/02 07:12:20;;;;;;;14.00;6.03;;;;;;;10.35;100.00;100880.97;5043661;28;20035;-76
2022/01/02 07:14:46;;;;;;;16.52;7.55;;;;;;;10.36;100.00;100876.53;5062910;28;20033;-76
2022/01/02 07:17:11;;;;;;;16.95;7.18;;;;;;;10.36;100.00;100876.53;5051903;28;20021;-76
2022/01/02 07:19:37;;;;;;;13.95;7.13;;;;;;;10.16;100.00;100829.13;5044222;28;20017;-76
2022/01/02 07:22:02;;;;;;;16.02;5.43;;;;;;;10.33;100.00;100851.28;5044071;28;20028;-76
2022/01/02 07:24:28;;;;;;;15.00;5.72;;;;;;;10.27;100.00;100836.84;5059916;28;20285;-76
2022/01/02 07:26:53;;;;;;;15.45;6.43;;;;;;;10.44;100.00;100855.53;5048183;28;20028;-76
2022/01/02 07:29:20;;;;;;;13.32;4.95;;;;;;;10.47;100.00;100865.75;5064668;28;20035;-76
2022/01/02 07:31:45;;;;;;;11.05;4.82;;;;;;;10.37;100.00;100836.00;5069114;28;20024;-76
2022/01/02 07:34:11;;;;;;;13.60;5.18;;;;;;;10.47;100.00;100844.66;5046714;28;20017;-76
2022/01/02 07:36:39;;;;;;;10.80;3.97;;;;;;;10.57;100.00;100852.53;5068607;28;20083;-76
2022/01/02 07:39:05;;;;;;;11.30;4.28;;;;;;;10.33;100.00;100802.97;5031848;28;20029;-76
2022/01/02 07:41:30;;;;;;;12.82;4.47;;;;;;;10.62;100.00;100851.06;5047609;28;20036;-77
2022/01/02 07:43:58;;;;;;;9.38;4.43;;;;;;;10.62;100.00;100840.50;5065240;28;20358;-77
2022/01/02 07:46:24;;;;;;;12.63;4.72;;;;;;;10.64;100.00;100833.28;5049356;28;20388;-77
2022/01/02 07:48:51;;;;;;;6.32;3.05;;;;;;;10.60;100.00;100820.53;5049334;28;20055;-77
2022/01/02 07:51:17;;;;;;;10.82;3.63;;;;;;;10.67;100.00;100830.34;5020259;28;20068;-76
2022/01/02 07:53:42;;;;;;;11.07;3.85;;;;;;;10.53;100.00;100799.19;5035123;28;20102;-76
2022/01/02 07:56:07;;;;;;;10.52;4.68;;;;;;;10.57;100.00;100795.28;5050493;28;20029;-76
2022/01/02 07:58:33;;;;;;;6.38;2.60;;;;;;;10.66;100.00;100814.66;5032745;28;20036;-76
2022/01/02 08:00:58;;;;;;;8.35;3.80;;;;;;;10.50;100.00;100786.31;5050208;28;20036;-76
2022/01/02 08:03:23;;;;;;;17.02;4.05;;;;;;;10.61;100.00;100817.75;5049251;28;20039;-76
2022/01/02 08:05:49;;;;;;;9.70;3.85;;;;;;;10.67;100.00;100816.34;5047453;28;20086;-76
2022/01/02 08:08:14;;;;;;;10.82;3.70;;;;;;;10.56;100.00;100809.47;5066090;28;20016;-76
2022/01/02 08:10:40;;;;;;;8.55;3.63;;;;;;;10.65;100.00;100813.03;5049714;28;20025;-76
2022/01/02 08:13:05;;;;;;;8.95;3.58;;;;;;;10.45;100.00;100793.84;5044684;28;20298;-76
2022/01/02 08:15:32;;;;;;;15.73;4.45;;;;;;;10.65;100.00;100824.41;5044713;28;20111;-76
2022/01/02 08:17:57;;;;;;;9.60;3.15;;;;;;;10.65;100.00;100829.69;5030959;28;20041;-76
2022/01/02 08:20:23;;;;;;;8.48;3.80;;;;;;;10.62;100.00;100827.31;5044369;28;20135;-76
2022/01/02 08:22:48;;;;;;;15.77;4.78;;;;;;;10.47;100.00;100807.72;5063599;28;20020;-76
2022/01/02 08:25:13;;;;;;;10.32;4.35;;;;;;;10.42;100.00;100809.97;5047284;28;20083;-76
2022/01/02 08:27:39;;;;;;;13.88;3.35;;;;;;;10.54;100.00;100821.13;5044749;28;20028;-76
2022/01/02 08:30:05;;;;;;;10.80;3.60;;;;;;;10.53;100.00;100833.50;5032492;28;20474;-76
2022/01/02 08:32:31;;;;;;;8.80;4.05;;;;;;;10.43;100.00;100830.09;5065456;28;20464;-76
2022/01/02 08:34:56;;;;;;;10.93;3.28;;;;;;;10.51;100.00;100853.94;5050616;28;20028;-76
2022/01/02 08:37:21;;;;;;;17.00;4.05;;;;;;;10.50;100.00;100841.75;5026386;28;20039;-76
2022/01/02 08:39:47;;;;;;;10.70;5.03;;;;;;;10.39;100.00;100815.56;5062679;28;20396;-77
2022/01/02 08:42:13;;;;;;;7.10;3.63;;;;;;;10.36;100.00;100816.69;5033558;28;20032;-76
2022/01/02 08:44:39;;;;;;;9.07;3.75;;;;;;;10.48;100.00;100836.59;5065386;28;20372;-77
2022/01/02 08:47:06;;;;;;;8.07;4.53;;;;;;;10.46;100.00;100837.72;5064629;28;20040;-76
2022/01/02 08:49:31;;;;;;;10.13;4.07;;;;;;;10.29;100.00;100812.97;5045099;28;20165;-76
2022/01/02 08:51:56;;;;;;;6.82;3.65;;;;;;;10.46;100.00;100837.72;5048332;28;20040;-77
2022/01/02 08:54:22;;;;;;;5.93;4.13;;;;;;;10.33;100.00;100801.16;5046625;28;20112;-76
2022/01/02 08:56:48;;;;;;;8.88;4.30;;;;;;;10.35;100.00;100801.03;5039800;28;20697;-76
2022/01/02 08:59:13;;;;;;;11.45;4.50;;;;;;;10.44;100.00;100810.66;5033384;28;20040;-76
2022/01/02 09:01:39;;;;;;;9.48;3.85;;;;;;;10.46;100.00;100816.63;5064184;28;20028;-76
2022/01/02 09:04:05;;;;;;;8.13;3.83;;;;;;;10.30;100.00;100796.19;5047902;28;20141;-76
2022/01/02 09:06:31;;;;;;;7.43;3.42;;;;;;;10.28;100.00;100792.84;5047176;28;20024;-76
2022/01/02 09:08:56;;;;;;;6.93;3.90;;;;;;;10.49;100.00;100814.53;5050287;28;20024;-75
2022/01/02 09:11:22;;;;;;;6.60;3.80;;;;;;;10.41;100.00;100813.59;5042379;28;20029;-75
2022/01/02 09:13:48;;;;;;;8.02;4.05;;;;;;;10.49;100.00;100822.44;5046836;28;20051;-75
2022/01/02 09:16:13;;;;;;;10.40;4.75;;;;;;;10.39;100.00;100807.66;5063407;28;20032;-75
2022/01/02 09:18:39;;;;;;;14.32;5.50;;;;;;;10.28;100.00;100798.94;5044198;28;20041;-75
2022/01/02 09:21:05;;;;;;;11.73;4.57;;;;;;;10.49;100.00;100824.22;5063860;28;20660;-75
2022/01/02 09:23:30;;;;;;;13.55;5.15;;;;;;;10.36;100.00;100797.38;5044674;28;20079;-75
2022/01/02 09:25:56;;;;;;;7.22;4.13;;;;;;;10.41;100.00;100801.25;5047197;28;20484;-75
2022/01/02 09:28:21;;;;;;;5.85;3.83;;;;;;;10.36;100.00;100782.38;5066008;28;20028;-75
2022/01/02 09:30:46;;;;;;;6.72;4.05;;;;;;;10.16;100.00;100742.09;5038679;28;20451;-76
2022/01/02 09:33:12;;;;;;;5.55;3.42;;;;;;;10.26;100.00;100761.31;5064965;28;20036;-75
2022/01/02 09:35:40;;;;;;;7.20;4.15;;;;;;;10.26;100.00;100763.97;5025127;28;20024;-75
2022/01/02 09:38:09;;;;;;;5.90;2.97;;;;;;;10.28;100.00;100769.09;5050028;28;20036;-75
2022/01/02 09:40:35;;;;;;;3.92;3.22;;;;;;;10.22;100.00;100762.59;5042565;28;20120;-76
2022/01/02 09:43:02;;;;;;;6.55;4.13;;;;;;;10.27;100.00;100770.88;5059063;28;20641;-76
2022/01/02 09:45:28;;;;;;;5.78;3.78;;;;;;;10.11;100.00;100739.09;5046284;28;20127;-76
2022/01/02 09:47:54;;;;;;;4.00;3.60;;;;;;;10.22;100.00;100765.25;5062738;28;20043;-76
2022/01/02 09:50:20;;;;;;;6.40;4.68;;;;;;;10.20;100.00;100761.09;5063284;28;20053;-76
2022/01/02 09:52:49;;;;;;;9.48;4.72;;;;;;;10.19;100.00;100759.44;5063696;28;20032;-75
2022/01/02 09:55:14;;;;;;;10.65;4.93;;;;;;;10.18;100.00;100758.59;5065172;28;20098;-75
2022/01/02 09:57:47;;;;;;;10.10;4.93;;;;;;;10.16;100.00;100752.66;5044415;28;20040;-75
2022/01/02 10:00:15;;;;;;;8.20;4.40;;;;;;;10.21;100.00;100744.28;5047537;28;20684;-75
2022/01/02 10:03:01;;;;;;;9.00;4.40;;;;;;;10.03;100.00;100724.00;5066259;28;20036;-75
2022/01/02 10:05:28;;;;;;;9.73;4.93;;;;;;;10.17;100.00;100746.41;5046884;28;20824;-76
2022/01/02 10:07:55;;;;;;;6.55;4.72;;;;;;;10.15;100.00;100740.47;5046557;28;20028;-75
2022/01/02 10:10:31;;;;;;;12.27;6.38;;;;;;;9.99;100.00;100712.09;5064759;28;20106;-75
2022/01/02 10:13:01;;;;;;;9.18;4.90;;;;;;;10.16;100.00;100725.44;5060371;28;20036;-75
2022/01/02 10:15:28;;;;;;;10.38;7.32;;;;;;;10.14;100.00;100725.59;5043500;28;20028;-75
2022/01/02 10:17:56;;;;;;;13.00;7.45;;;;;;;10.14;100.00;100728.22;5063596;28;20040;-75
2022/01/02 10:20:25;;;;;;;14.10;6.25;;;;;;;10.14;100.00;100722.13;5064847;28;20031;-75
2022/01/02 10:23:15;;;;;;;10.75;6.22;;;;;;;10.13;100.00;100710.75;5045080;28;20489;-76
2022/01/02 10:25:47;;;;;;;10.88;6.63;;;;;;;9.97;100.00;100692.13;5064478;28;20052;-76
2022/01/02 10:28:19;;;;;;;12.77;6.72;;;;;;;10.11;100.00;100701.34;5063914;28;21219;-77
2022/01/02 10:30:48;;;;;;;11.80;7.13;;;;;;;9.95;100.00;100675.63;5065080;28;20055;-76
2022/01/02 10:33:15;;;;;;;14.70;8.73;;;;;;;10.16;100.00;100702.53;5044069;28;20650;-77
2022/01/02 10:35:41;;;;;;;13.32;7.72;;;;;;;10.09;100.00;100690.94;5063653;28;20381;-77
2022/01/02 10:38:13;;;;;;;26.40;14.30;;;;;;;10.05;100.00;100682.50;5026393;28;20033;-77
2022/01/02 10:40:39;;;;;;;10.43;7.32;;;;;;;10.24;100.00;100707.06;5049153;28;20047;-77
2022/01/02 10:43:26;;;;;;;13.63;8.93;;;;;;;10.24;100.00;100709.72;5048148;28;20028;-76
2022/01/02 10:45:53;;;;;;;8.65;7.15;;;;;;;10.26;100.00;100698.03;5065393;28;20028;-76
2022/01/02 10:48:39;;;;;;;9.98;7.95;;;;;;;10.26;100.00;100697.19;5049358;28;20504;-76
2022/01/02 10:51:06;;;;;;;19.02;11.13;;;;;;;10.35;100.00;100700.78;5065209;28;20059;-76
2022/01/02 10:53:34;;;;;;;16.33;10.18;;;;;;;10.35;100.00;100690.22;5064808;28;20029;-76
2022/01/02 10:56:01;;;;;;;21.70;12.75;;;;;;;10.36;100.00;100683.94;5045920;28;20051;-76
2022/01/02 10:58:27;;;;;;;12.98;8.73;;;;;;;10.34;100.00;100684.09;5051667;28;20043;-77
2022/01/02 11:00:53;;;;;;;13.93;8.57;;;;;;;10.37;100.00;100682.97;5029429;28;20556;-77
2022/01/02 11:03:24;;;;;;;14.38;7.65;;;;;;;10.35;100.00;100674.38;5068061;28;20036;-76
2022/01/02 11:05:56;;;;;;;15.80;8.82;;;;;;;10.24;100.00;100652.50;5050456;28;20111;-77
2022/01/02 11:08:22;;;;;;;12.98;7.93;;;;;;;10.37;100.00;100677.72;5047650;28;20028;-77
2022/01/02 11:10:48;;;;;;;17.15;7.78;;;;;;;10.34;100.00;100667.44;5069412;28;20029;-77
2022/01/02 11:13:16;;;;;;;14.30;6.70;;;;;;;10.23;100.00;100650.84;5049415;28;20059;-78
2022/01/02 11:15:42;;;;;;;17.25;6.65;;;;;;;10.35;100.00;100655.94;5045066;28;20029;-77
2022/01/02 11:18:08;;;;;;;11.05;5.53;;;;;;;10.40;100.00;100656.28;5052188;28;20374;-77
2022/01/02 11:20:34;;;;;;;12.98;4.53;;;;;;;10.40;100.00;100661.56;5066675;28;20079;-77